Time;durP1;ratioP1;P1;durP2;ratioP2;P2;SDS_P1;SDS_P2;PMS_P1;PMS_P2;Temp;Humidity;BMP_temperature;BMP_pressure;BME280_temperature;BME280_humidity;BME280_pressure;Samples;Min_cycle;Max_cycle;Signal;HPM_P1;HPM_P2
2023/05/16 00:01:34;;;;;;;64.93;50.92;;;;;;;;;;4976475;28;20059;-76
2023/05/16 00:03:59;;;;;;;59.88;50.47;;;;;;;;;;4975739;28;20611;-76
2023/05/16 00:06:25;;;;;;;72.60;56.03;;;;;;;;;;4975174;28;20058;-75
2023/05/16 00:08:50;;;;;;;61.33;50.45;;;;;;;;;;4974140;28;20426;-75
2023/05/16 00:11:16;;;;;;;61.60;52.97;;;;;;;;;;4963728;28;20113;-77
2023/05/16 00:13:41;;;;;;;62.28;51.20;;;;;;;;;;4966202;28;20457;-79
2023/05/16 00:16:07;;;;;;;60.45;50.33;;;;;;;;;;4977241;28;20066;-79
2023/05/16 00:18:36;;;;;;;58.28;45.75;;;;;;;;;;4975673;28;20109;-75
2023/05/16 00:21:02;;;;;;;65.20;49.67;;;;;;;;;;4974197;28;20114;-75
2023/05/16 00:23:27;;;;;;;68.53;48.85;;;;;;;;;;4974801;28;20125;-76
2023/05/16 00:25:53;;;;;;;58.67;44.70;;;;;;;;;;4978070;28;20589;-76
2023/05/16 00:28:18;;;;;;;51.92;40.42;;;;;;;;;;4968323;28;20022;-78
2023/05/16 00:30:43;;;;;;;43.30;36.28;;;;;;;;;;4968334;28;20078;-76
2023/05/16 00:33:09;;;;;;;42.08;34.83;;;;;;;;;;4965332;28;20045;-77
2023/05/16 00:35:34;;;;;;;37.42;33.42;;;;;;;;;;4964311;28;20041;-77
2023/05/16 00:38:00;;;;;;;36.70;32.50;;;;;;;;;;4963542;28;20113;-76
2023/05/16 00:40:25;;;;;;;37.15;30.35;;;;;;;;;;4974877;28;20125;-77
2023/05/16 00:42:50;;;;;;;34.22;30.40;;;;;;;;;;4976421;28;20054;-75
2023/05/16 00:45:16;;;;;;;36.30;30.50;;;;;;;;;;4975794;28;20445;-77
2023/05/16 00:47:41;;;;;;;40.05;35.72;;;;;;;;;;4965958;28;20125;-76
2023/05/16 00:50:07;;;;;;;59.42;47.08;;;;;;;;;;4971536;28;20035;-77
2023/05/16 00:52:32;;;;;;;46.40;36.88;;;;;;;;;;4963986;28;20543;-77
2023/05/16 00:54:58;;;;;;;45.80;40.17;;;;;;;;;;4963859;28;20026;-76
2023/05/16 00:57:23;;;;;;;47.03;38.35;;;;;;;;;;4977199;28;20050;-77
2023/05/16 00:59:49;;;;;;;40.75;36.53;;;;;;;;;;4975032;28;20022;-76
2023/05/16 01:02:15;;;;;;;43.95;39.47;;;;;;;;;;4965535;28;20121;-77
2023/05/16 01:04:42;;;;;;;34.95;31.15;;;;;;;;;;4971898;28;20033;-75
2023/05/16 01:07:07;;;;;;;37.83;33.83;;;;;;;;;;4960858;28;20022;-77
2023/05/16 01:09:33;;;;;;;37.03;32.00;;;;;;;;;;4969322;28;20038;-76
2023/05/16 01:12:07;;;;;;;34.78;31.23;;;;;;;;;;4969481;28;20188;-76
2023/05/16 01:14:36;;;;;;;32.67;29.23;;;;;;;;;;4966846;28;20034;-78
2023/05/16 01:17:07;;;;;;;33.63;29.38;;;;;;;;;;4973676;28;20058;-76
2023/05/16 01:19:36;;;;;;;40.67;34.15;;;;;;;;;;4975329;28;20345;-75
2023/05/16 01:22:04;;;;;;;38.65;34.58;;;;;;;;;;4967015;28;20049;-77
2023/05/16 01:24:33;;;;;;;41.58;34.40;;;;;;;;;;4969159;28;20100;-77
2023/05/16 01:26:59;;;;;;;39.10;34.90;;;;;;;;;;4967119;28;20453;-77
2023/05/16 01:29:24;;;;;;;38.95;33.60;;;;;;;;;;4966889;28;20041;-76
2023/05/16 01:31:50;;;;;;;40.72;32.47;;;;;;;;;;4962000;28;20663;-77
2023/05/16 01:34:16;;;;;;;37.83;32.08;;;;;;;;;;4963485;28;20042;-77
2023/05/16 01:36:47;;;;;;;34.35;30.60;;;;;;;;;;4963282;28;20420;-77
2023/05/16 01:39:29;;;;;;;34.45;30.83;;;;;;;;;;4961514;28;20022;-79
2023/05/16 01:41:55;;;;;;;32.88;29.42;;;;;;;;;;4974380;28;20074;-77
2023/05/16 01:44:24;;;;;;;32.80;29.38;;;;;;;;;;4973139;28;20065;-78
2023/05/16 01:46:54;;;;;;;34.53;31.05;;;;;;;;;;4969846;28;20077;-77
2023/05/16 01:49:24;;;;;;;36.67;31.92;;;;;;;;;;4968337;28;20072;-78
2023/05/16 01:51:51;;;;;;;40.30;35.53;;;;;;;;;;4969466;28;20058;-77
2023/05/16 01:54:18;;;;;;;40.75;36.03;;;;;;;;;;4968142;28;20026;-74
2023/05/16 01:56:46;;;;;;;38.67;34.10;;;;;;;;;;4975220;28;20079;-76
2023/05/16 01:59:12;;;;;;;40.17;34.08;;;;;;;;;;4974195;28;20757;-79
2023/05/16 02:01:37;;;;;;;39.45;34.35;;;;;;;;;;4968806;28;20031;-77
2023/05/16 02:04:03;;;;;;;36.88;32.35;;;;;;;;;;4963094;28;20179;-78
2023/05/16 02:06:29;;;;;;;34.67;30.83;;;;;;;;;;4960759;28;20025;-79
2023/05/16 02:08:54;;;;;;;36.53;32.53;;;;;;;;;;4960561;28;20037;-77
2023/05/16 02:11:21;;;;;;;36.17;31.90;;;;;;;;;;4969454;28;20046;-77
2023/05/16 02:13:46;;;;;;;36.33;32.58;;;;;;;;;;4975544;28;20050;-78
2023/05/16 02:16:11;;;;;;;38.67;34.47;;;;;;;;;;4972765;28;20026;-77
2023/05/16 02:18:37;;;;;;;67.63;60.47;;;;;;;;;;4964662;28;20381;-76
2023/05/16 02:21:03;;;;;;;46.38;41.63;;;;;;;;;;4975922;28;20134;-77
2023/05/16 02:23:28;;;;;;;41.42;37.13;;;;;;;;;;4961081;28;20425;-77
2023/05/16 02:25:54;;;;;;;40.63;36.30;;;;;;;;;;4974809;28;20121;-76
2023/05/16 02:28:19;;;;;;;36.42;32.65;;;;;;;;;;4973573;28;20072;-77
2023/05/16 02:30:45;;;;;;;35.05;31.13;;;;;;;;;;4974624;28;20054;-76
2023/05/16 02:33:10;;;;;;;31.55;28.35;;;;;;;;;;4971595;28;20044;-78
2023/05/16 02:35:36;;;;;;;34.97;31.27;;;;;;;;;;4974969;28;20035;-78
2023/05/16 02:38:01;;;;;;;35.85;32.20;;;;;;;;;;4972091;28;20063;-77
2023/05/16 02:40:26;;;;;;;40.63;33.88;;;;;;;;;;4972465;28;20042;-77
2023/05/16 02:42:52;;;;;;;47.22;33.75;;;;;;;;;;4963097;28;20487;-76
2023/05/16 02:45:18;;;;;;;40.58;33.05;;;;;;;;;;4969831;28;20079;-78
2023/05/16 02:47:44;;;;;;;36.63;32.72;;;;;;;;;;4964622;28;20058;-77
2023/05/16 02:50:09;;;;;;;36.88;32.92;;;;;;;;;;4971935;28;20043;-76
2023/05/16 02:52:35;;;;;;;35.00;31.35;;;;;;;;;;4972373;28;20026;-76
2023/05/16 02:55:00;;;;;;;36.33;32.45;;;;;;;;;;4965825;28;20113;-77
2023/05/16 02:57:25;;;;;;;36.90;32.80;;;;;;;;;;4962821;28;20033;-77
2023/05/16 02:59:51;;;;;;;38.15;34.25;;;;;;;;;;4972715;28;20113;-77
2023/05/16 03:02:16;;;;;;;40.38;34.30;;;;;;;;;;4973982;28;20085;-77
2023/05/16 03:04:42;;;;;;;33.45;30.08;;;;;;;;;;4965089;28;20027;-77
2023/05/16 03:07:07;;;;;;;37.40;33.58;;;;;;;;;;4960480;28;20444;-76
2023/05/16 03:09:33;;;;;;;34.42;30.80;;;;;;;;;;4950616;28;20054;-77
2023/05/16 03:11:58;;;;;;;31.35;28.10;;;;;;;;;;4948207;28;20031;-77
2023/05/16 03:14:24;;;;;;;29.08;26.17;;;;;;;;;;4949751;28;20023;-77
2023/05/16 03:16:49;;;;;;;27.73;24.95;;;;;;;;;;4946894;28;20180;-77
2023/05/16 03:19:14;;;;;;;25.95;23.45;;;;;;;;;;4951408;28;20102;-78
2023/05/16 03:21:40;;;;;;;26.48;23.80;;;;;;;;;;4945333;28;20066;-77
2023/05/16 03:24:05;;;;;;;26.70;24.05;;;;;;;;;;4951603;28;20559;-77
2023/05/16 03:26:31;;;;;;;28.65;25.73;;;;;;;;;;4947991;28;20152;-78
2023/05/16 03:28:56;;;;;;;31.77;27.50;;;;;;;;;;4947257;28;20322;-78
2023/05/16 03:31:21;;;;;;;29.63;25.73;;;;;;;;;;4946930;28;20405;-78
2023/05/16 03:33:47;;;;;;;30.00;26.55;;;;;;;;;;4949919;28;20362;-77
2023/05/16 03:36:12;;;;;;;27.48;24.77;;;;;;;;;;4947895;28;20096;-78
2023/05/16 03:38:37;;;;;;;28.58;24.83;;;;;;;;;;4950753;28;20054;-78
2023/05/16 03:41:03;;;;;;;27.65;23.27;;;;;;;;;;4952423;28;20407;-77
2023/05/16 03:43:28;;;;;;;27.23;24.38;;;;;;;;;;4952591;28;20135;-77
2023/05/16 03:45:54;;;;;;;28.55;25.63;;;;;;;;;;4973574;28;20046;-78
2023/05/16 03:48:20;;;;;;;27.17;23.70;;;;;;;;;;4978765;28;20095;-77
2023/05/16 03:50:45;;;;;;;26.60;23.95;;;;;;;;;;4974606;28;20027;-78
2023/05/16 03:53:11;;;;;;;23.52;21.05;;;;;;;;;;4969027;28;20376;-79
2023/05/16 03:55:36;;;;;;;24.42;22.05;;;;;;;;;;4957454;28;20035;-80
2023/05/16 03:58:01;;;;;;;22.50;20.27;;;;;;;;;;4951090;28;20085;-78
2023/05/16 04:00:27;;;;;;;25.42;22.42;;;;;;;;;;4953135;28;20035;-78
2023/05/16 04:02:52;;;;;;;25.95;23.27;;;;;;;;;;4951655;28;20339;-77
2023/05/16 04:05:17;;;;;;;23.90;21.50;;;;;;;;;;4951707;28;20925;-77
2023/05/16 04:07:43;;;;;;;26.70;21.48;;;;;;;;;;4954252;28;20031;-77
2023/05/16 04:10:09;;;;;;;34.97;31.48;;;;;;;;;;4961623;28;20026;-78
2023/05/16 04:12:34;;;;;;;29.63;22.75;;;;;;;;;;4970319;28;20045;-78
2023/05/16 04:15:00;;;;;;;21.38;19.30;;;;;;;;;;4968493;28;20026;-78
2023/05/16 04:17:26;;;;;;;20.88;18.55;;;;;;;;;;4974247;28;20115;-77
2023/05/16 04:19:51;;;;;;;23.30;18.73;;;;;;;;;;4970290;28;20139;-78
2023/05/16 04:22:16;;;;;;;34.72;31.23;;;;;;;;;;4955557;28;20038;-76
2023/05/16 04:24:42;;;;;;;30.30;22.35;;;;;;;;;;4950450;28;20412;-78
2023/05/16 04:27:11;;;;;;;30.88;27.00;;;;;;;;;;4952915;28;20089;-78
2023/05/16 04:29:36;;;;;;;30.05;26.67;;;;;;;;;;4959501;28;20015;-78
2023/05/16 04:32:02;;;;;;;35.00;29.77;;;;;;;;;;4982962;28;20038;-76
2023/05/16 04:34:27;;;;;;;36.53;31.95;;;;;;;;;;4966337;28;20060;-77
2023/05/16 04:36:53;;;;;;;36.33;32.38;;;;;;;;;;4973531;28;20409;-76
2023/05/16 04:39:19;;;;;;;29.35;26.45;;;;;;;;;;4956157;28;20068;-77
2023/05/16 04:41:44;;;;;;;28.45;25.55;;;;;;;;;;4961658;28;20469;-77
2023/05/16 04:44:10;;;;;;;24.42;21.05;;;;;;;;;;4967976;28;20038;-78
2023/05/16 04:46:35;;;;;;;34.92;25.38;;;;;;;;;;4976686;28;20022;-76
2023/05/16 04:49:01;;;;;;;34.63;30.27;;;;;;;;;;4975418;28;20037;-78
2023/05/16 04:51:26;;;;;;;31.05;27.40;;;;;;;;;;4972694;28;20118;-79
2023/05/16 04:53:51;;;;;;;31.90;25.70;;;;;;;;;;4972566;28;20035;-78
2023/05/16 04:56:17;;;;;;;27.83;25.02;;;;;;;;;;4976669;28;20033;-78
2023/05/16 04:58:42;;;;;;;27.98;25.02;;;;;;;;;;4977274;28;21198;-78
2023/05/16 05:01:07;;;;;;;29.35;26.25;;;;;;;;;;4973854;28;20077;-80
2023/05/16 05:03:33;;;;;;;34.40;30.85;;;;;;;;;;4975425;28;20058;-76
2023/05/16 05:05:58;;;;;;;38.80;33.00;;;;;;;;;;4974901;28;20034;-79
2023/05/16 05:08:24;;;;;;;31.75;27.88;;;;;;;;;;4974626;28;20022;-78
2023/05/16 05:10:50;;;;;;;43.13;33.20;;;;;;;;;;4973990;28;20325;-78
2023/05/16 05:13:15;;;;;;;35.95;28.85;;;;;;;;;;4974864;28;20049;-79
2023/05/16 05:15:40;;;;;;;30.42;27.25;;;;;;;;;;4973445;28;20027;-77
2023/05/16 05:18:06;;;;;;;31.98;25.92;;;;;;;;;;4975381;28;20038;-77
2023/05/16 05:20:31;;;;;;;30.55;27.27;;;;;;;;;;4973238;28;20045;-77
2023/05/16 05:22:57;;;;;;;30.77;27.48;;;;;;;;;;4956280;28;20035;-77
2023/05/16 05:25:22;;;;;;;30.33;27.05;;;;;;;;;;4957899;28;20111;-77
2023/05/16 05:27:47;;;;;;;31.95;27.38;;;;;;;;;;4960731;28;20018;-78
2023/05/16 05:30:13;;;;;;;42.97;38.15;;;;;;;;;;4961565;28;20030;-77
2023/05/16 05:32:38;;;;;;;47.92;40.83;;;;;;;;;;4973082;28;20496;-77
2023/05/16 05:35:04;;;;;;;44.08;37.67;;;;;;;;;;4969145;28;20023;-76
2023/05/16 05:37:30;;;;;;;41.92;35.55;;;;;;;;;;4965651;28;20394;-77
2023/05/16 05:39:55;;;;;;;68.15;47.97;;;;;;;;;;4964242;28;20022;-76
2023/05/16 05:42:21;;;;;;;63.17;48.15;;;;;;;;;;4966038;28;20159;-77
2023/05/16 05:44:46;;;;;;;64.53;56.70;;;;;;;;;;4974837;28;20030;-76
2023/05/16 05:47:12;;;;;;;55.95;47.30;;;;;;;;;;4961892;28;23271;-76
2023/05/16 05:49:37;;;;;;;56.42;50.58;;;;;;;;;;4959801;28;20019;-75
2023/05/16 05:52:03;;;;;;;32.90;27.77;;;;;;;;;;4974372;28;20038;-76
2023/05/16 05:54:29;;;;;;;30.20;27.08;;;;;;;;;;4973713;28;20076;-78
2023/05/16 05:56:55;;;;;;;42.50;37.97;;;;;;;;;;4972358;28;20023;-77
2023/05/16 05:59:21;;;;;;;35.03;30.75;;;;;;;;;;4964606;28;20031;-77
2023/05/16 06:01:51;;;;;;;30.88;27.70;;;;;;;;;;4968860;28;20026;-79
2023/05/16 06:04:16;;;;;;;26.23;23.52;;;;;;;;;;4972694;28;20038;-79
2023/05/16 06:06:41;;;;;;;24.25;21.83;;;;;;;;;;4967919;28;20373;-80
2023/05/16 06:09:07;;;;;;;21.55;18.77;;;;;;;;;;4971693;28;20022;-79
2023/05/16 06:11:32;;;;;;;22.42;17.73;;;;;;;;;;4969700;28;20113;-78
2023/05/16 06:13:57;;;;;;;17.80;16.02;;;;;;;;;;4975391;28;20038;-76
2023/05/16 06:16:24;;;;;;;23.23;19.80;;;;;;;;;;4969399;28;20031;-78
2023/05/16 06:18:49;;;;;;;18.20;16.25;;;;;;;;;;4973160;28;20447;-75
2023/05/16 06:21:15;;;;;;;16.95;15.20;;;;;;;;;;4969940;28;20127;-76
2023/05/16 06:23:40;;;;;;;16.42;14.55;;;;;;;;;;4975092;28;20043;-78
2023/05/16 06:26:05;;;;;;;18.50;14.50;;;;;;;;;;4967071;28;20114;-77
2023/05/16 06:28:31;;;;;;;21.08;16.55;;;;;;;;;;4964061;28;20298;-77
2023/05/16 06:30:56;;;;;;;16.13;14.38;;;;;;;;;;4968926;28;20051;-76
2023/05/16 06:33:21;;;;;;;14.38;13.07;;;;;;;;;;4974323;28;20087;-78
2023/05/16 06:35:47;;;;;;;17.70;14.45;;;;;;;;;;4972868;28;20027;-77
2023/05/16 06:38:13;;;;;;;18.75;16.90;;;;;;;;;;4968355;28;20631;-76
2023/05/16 06:40:38;;;;;;;19.13;15.52;;;;;;;;;;4971305;28;20031;-76
2023/05/16 06:43:04;;;;;;;25.65;22.95;;;;;;;;;;4968037;28;20050;-75
2023/05/16 06:45:29;;;;;;;39.33;32.95;;;;;;;;;;4970416;28;20077;-77
2023/05/16 06:47:55;;;;;;;37.47;29.38;;;;;;;;;;4970499;28;20030;-76
2023/05/16 06:50:21;;;;;;;33.65;26.60;;;;;;;;;;4972000;28;20045;-79
2023/05/16 06:52:46;;;;;;;29.75;23.73;;;;;;;;;;4967610;28;20056;-75
2023/05/16 06:55:12;;;;;;;37.33;28.35;;;;;;;;;;4974032;28;20126;-75
2023/05/16 06:57:37;;;;;;;28.77;22.20;;;;;;;;;;4973017;28;20053;-77
2023/05/16 07:00:03;;;;;;;19.17;17.23;;;;;;;;;;4973860;28;20073;-78
2023/05/16 07:02:28;;;;;;;18.05;16.33;;;;;;;;;;4973965;28;20030;-78
2023/05/16 07:04:53;;;;;;;25.40;21.15;;;;;;;;;;4972415;28;20022;-77
2023/05/16 07:07:19;;;;;;;121.35;76.65;;;;;;;;;;4975581;28;20039;-77
2023/05/16 07:09:44;;;;;;;50.65;35.10;;;;;;;;;;4973948;28;20443;-78
2023/05/16 07:12:10;;;;;;;28.73;23.45;;;;;;;;;;4974317;28;20027;-78
2023/05/16 07:14:35;;;;;;;22.05;19.15;;;;;;;;;;4973113;28;20038;-76
2023/05/16 07:17:00;;;;;;;17.80;15.77;;;;;;;;;;4974811;28;20018;-77
2023/05/16 07:19:26;;;;;;;17.15;15.43;;;;;;;;;;4973654;28;20034;-76
2023/05/16 07:21:51;;;;;;;19.45;14.32;;;;;;;;;;4973760;28;20041;-77
2023/05/16 07:24:16;;;;;;;16.02;13.15;;;;;;;;;;4975870;28;20077;-76
2023/05/16 07:26:42;;;;;;;16.35;14.63;;;;;;;;;;4970585;28;20031;-77
2023/05/16 07:29:07;;;;;;;15.50;13.55;;;;;;;;;;4976148;28;20096;-76
2023/05/16 07:31:32;;;;;;;15.50;13.68;;;;;;;;;;4977901;28;20035;-75
2023/05/16 07:33:58;;;;;;;15.43;13.85;;;;;;;;;;4974109;28;20345;-77
2023/05/16 07:36:23;;;;;;;14.95;13.48;;;;;;;;;;4975950;28;20342;-76
2023/05/16 07:38:49;;;;;;;18.27;13.95;;;;;;;;;;4976822;28;20460;-78
2023/05/16 07:41:14;;;;;;;18.75;13.98;;;;;;;;;;4971110;28;20042;-77
2023/05/16 07:43:40;;;;;;;15.55;13.40;;;;;;;;;;4976331;28;20039;-77
2023/05/16 07:46:05;;;;;;;27.33;16.08;;;;;;;;;;4976241;28;20104;-78
2023/05/16 07:48:31;;;;;;;20.30;16.35;;;;;;;;;;4972773;28;20026;-77
2023/05/16 07:50:56;;;;;;;18.60;14.85;;;;;;;;;;4972441;28;20030;-78
2023/05/16 07:53:22;;;;;;;22.52;19.20;;;;;;;;;;4977810;28;20043;-79
2023/05/16 07:55:47;;;;;;;16.50;14.52;;;;;;;;;;4976758;28;20052;-76
2023/05/16 07:58:13;;;;;;;15.05;13.55;;;;;;;;;;4976537;28;20383;-77
2023/05/16 08:00:38;;;;;;;14.23;12.48;;;;;;;;;;4990019;28;20039;-76
2023/05/16 08:03:04;;;;;;;16.10;13.07;;;;;;;;;;4974263;28;20038;-75
2023/05/16 08:05:29;;;;;;;14.35;12.35;;;;;;;;;;4971137;28;20357;-78
2023/05/16 08:07:55;;;;;;;13.73;12.32;;;;;;;;;;4974428;28;20101;-76
2023/05/16 08:10:22;;;;;;;14.35;12.32;;;;;;;;;;4975310;28;20034;-77
2023/05/16 08:12:47;;;;;;;14.27;12.77;;;;;;;;;;4973296;28;20496;-78
2023/05/16 08:15:12;;;;;;;15.57;13.10;;;;;;;;;;4972348;28;20084;-77
2023/05/16 08:17:38;;;;;;;15.43;13.45;;;;;;;;;;4974556;28;20022;-76
2023/05/16 08:20:04;;;;;;;17.27;14.10;;;;;;;;;;4975280;28;20433;-77
2023/05/16 08:22:30;;;;;;;17.25;14.40;;;;;;;;;;4974730;28;20357;-77
2023/05/16 08:24:56;;;;;;;12.90;11.50;;;;;;;;;;4974499;28;20114;-77
2023/05/16 08:27:22;;;;;;;15.32;12.02;;;;;;;;;;4974127;28;20126;-77
2023/05/16 08:29:47;;;;;;;14.02;12.63;;;;;;;;;;4976914;28;20018;-78
2023/05/16 08:32:13;;;;;;;15.63;13.95;;;;;;;;;;4974800;28;20340;-77
2023/05/16 08:34:38;;;;;;;14.52;12.70;;;;;;;;;;4974540;28;20026;-77
2023/05/16 08:37:04;;;;;;;20.90;15.27;;;;;;;;;;4974523;28;20069;-77
2023/05/16 08:39:29;;;;;;;19.85;15.00;;;;;;;;;;4975899;28;20440;-77
2023/05/16 08:41:55;;;;;;;19.67;14.02;;;;;;;;;;4973761;28;20360;-77
2023/05/16 08:44:20;;;;;;;16.50;14.13;;;;;;;;;;4975613;28;20038;-76
2023/05/16 08:46:52;;;;;;;24.42;15.02;;;;;;;;;;4975716;28;20073;-77
2023/05/16 08:49:18;;;;;;;20.23;14.43;;;;;;;;;;4974698;28;20026;-76
2023/05/16 08:51:45;;;;;;;15.18;12.18;;;;;;;;;;4975843;28;20453;-76
2023/05/16 08:54:15;;;;;;;18.00;14.38;;;;;;;;;;4975423;28;20042;-77
2023/05/16 08:56:41;;;;;;;15.45;12.55;;;;;;;;;;4973399;28;20031;-76
2023/05/16 08:59:07;;;;;;;16.63;11.40;;;;;;;;;;4974863;28;20049;-76
2023/05/16 09:01:32;;;;;;;15.48;12.35;;;;;;;;;;4973403;28;20076;-78
2023/05/16 09:03:59;;;;;;;14.68;11.77;;;;;;;;;;4971668;28;20042;-75
2023/05/16 09:06:25;;;;;;;13.00;10.73;;;;;;;;;;4972613;28;20073;-77
2023/05/16 09:08:50;;;;;;;14.32;10.48;;;;;;;;;;4972924;28;20026;-77
2023/05/16 09:11:16;;;;;;;15.15;12.55;;;;;;;;;;4975093;28;20103;-76
2023/05/16 09:13:41;;;;;;;56.17;38.13;;;;;;;;;;4975586;28;20026;-75
2023/05/16 09:16:16;;;;;;;20.65;15.55;;;;;;;;;;4975817;28;20101;-76
2023/05/16 09:18:42;;;;;;;20.60;16.67;;;;;;;;;;4975132;28;20063;-77
2023/05/16 09:21:08;;;;;;;14.15;12.07;;;;;;;;;;4974905;28;20056;-76
2023/05/16 09:23:34;;;;;;;15.20;13.70;;;;;;;;;;4974463;28;20508;-76
2023/05/16 09:25:59;;;;;;;13.23;10.32;;;;;;;;;;4973306;28;20458;-76
2023/05/16 09:28:25;;;;;;;14.20;11.30;;;;;;;;;;4971751;28;20446;-76
2023/05/16 09:30:51;;;;;;;13.38;11.73;;;;;;;;;;4976068;28;20433;-77
2023/05/16 09:33:16;;;;;;;13.40;11.70;;;;;;;;;;4972135;28;20087;-76
2023/05/16 09:35:42;;;;;;;12.25;10.85;;;;;;;;;;4975013;28;20027;-76
2023/05/16 09:38:12;;;;;;;11.93;10.57;;;;;;;;;;4970582;28;20031;-77
2023/05/16 09:40:40;;;;;;;16.15;11.27;;;;;;;;;;4973773;28;20027;-76
2023/05/16 09:43:06;;;;;;;16.52;12.65;;;;;;;;;;4973973;28;20051;-75
2023/05/16 09:45:32;;;;;;;17.25;13.52;;;;;;;;;;4972666;28;20422;-76
2023/05/16 09:48:03;;;;;;;19.98;12.90;;;;;;;;;;4974491;28;20038;-76
2023/05/16 09:50:30;;;;;;;19.20;12.95;;;;;;;;;;4975273;28;20035;-77
2023/05/16 09:52:56;;;;;;;17.95;14.25;;;;;;;;;;4972757;28;20034;-76
2023/05/16 09:55:21;;;;;;;20.80;16.67;;;;;;;;;;4970398;28;20031;-75
2023/05/16 09:57:47;;;;;;;20.30;16.88;;;;;;;;;;4972190;28;20073;-76
2023/05/16 10:00:13;;;;;;;26.45;18.60;;;;;;;;;;4970361;28;20022;-78
2023/05/16 10:02:39;;;;;;;25.67;20.27;;;;;;;;;;4973417;28;20118;-78
2023/05/16 10:05:05;;;;;;;23.63;18.65;;;;;;;;;;4972468;28;20345;-77
2023/05/16 10:07:33;;;;;;;27.50;19.17;;;;;;;;;;4972255;28;20037;-78
2023/05/16 10:10:08;;;;;;;26.77;17.65;;;;;;;;;;4974743;28;20035;-76
2023/05/16 10:12:35;;;;;;;22.42;16.90;;;;;;;;;;4972419;28;20031;-76
2023/05/16 10:15:02;;;;;;;18.67;15.50;;;;;;;;;;4973706;28;20113;-77
2023/05/16 10:17:30;;;;;;;18.50;12.80;;;;;;;;;;4974048;28;20034;-76
2023/05/16 10:19:56;;;;;;;19.08;12.95;;;;;;;;;;4971860;28;20423;-76
2023/05/16 10:22:22;;;;;;;22.88;15.23;;;;;;;;;;4975303;28;20099;-76
2023/05/16 10:24:54;;;;;;;19.10;15.48;;;;;;;;;;4970735;28;20031;-76
2023/05/16 10:27:19;;;;;;;20.52;15.70;;;;;;;;;;4973765;28;20402;-76
2023/05/16 10:29:45;;;;;;;33.55;22.33;;;;;;;;;;4975126;28;20041;-77
2023/05/16 10:32:11;;;;;;;21.25;15.45;;;;;;;;;;4975216;28;20026;-77
2023/05/16 10:34:38;;;;;;;19.27;13.40;;;;;;;;;;4972241;28;20648;-78
2023/05/16 10:37:04;;;;;;;15.55;13.15;;;;;;;;;;4975413;28;20091;-78
2023/05/16 10:39:29;;;;;;;16.10;14.00;;;;;;;;;;4973740;28;20027;-76
2023/05/16 10:41:56;;;;;;;14.13;12.63;;;;;;;;;;4972921;28;20461;-78
2023/05/16 10:44:21;;;;;;;15.27;12.60;;;;;;;;;;4972548;28;20035;-78
2023/05/16 10:46:47;;;;;;;12.68;11.38;;;;;;;;;;4971944;28;20036;-78
2023/05/16 10:49:25;;;;;;;16.80;11.88;;;;;;;;;;4973432;28;20058;-77
2023/05/16 10:52:05;;;;;;;15.77;14.07;;;;;;;;;;4973093;28;20150;-76
2023/05/16 10:54:34;;;;;;;15.07;11.65;;;;;;;;;;4975171;28;20018;-77
2023/05/16 10:57:03;;;;;;;14.70;10.65;;;;;;;;;;4974648;28;20038;-78
2023/05/16 10:59:28;;;;;;;16.17;11.38;;;;;;;;;;4974140;28;20034;-78
2023/05/16 11:01:56;;;;;;;13.20;11.48;;;;;;;;;;4974237;28;20448;-76
2023/05/16 11:04:22;;;;;;;14.75;11.20;;;;;;;;;;4973418;28;20034;-78
2023/05/16 11:06:51;;;;;;;12.80;11.15;;;;;;;;;;4972096;28;20662;-77
2023/05/16 11:09:16;;;;;;;;;;;;;;;;;;4972346;28;20425;-77
2023/05/16 11:11:42;;;;;;;13.30;11.17;;;;;;;;;;4971246;28;19961;-78
2023/05/16 11:14:07;;;;;;;14.88;11.68;;;;;;;;;;4972281;28;20269;-77
2023/05/16 11:16:34;;;;;;;15.23;12.43;;;;;;;;;;4972842;28;20031;-77
2023/05/16 11:19:06;;;;;;;17.13;10.68;;;;;;;;;;4970749;28;20119;-78
2023/05/16 11:21:51;;;;;;;13.13;10.77;;;;;;;;;;4972548;28;20033;-77
2023/05/16 11:24:29;;;;;;;13.75;10.75;;;;;;;;;;4973196;28;20457;-78
2023/05/16 11:26:55;;;;;;;14.48;10.55;;;;;;;;;;4974111;28;20485;-77
2023/05/16 11:29:21;;;;;;;12.63;10.15;;;;;;;;;;4971356;28;20023;-76
2023/05/16 11:31:46;;;;;;;13.73;10.98;;;;;;;;;;4971378;28;20030;-77
2023/05/16 11:34:12;;;;;;;12.70;11.02;;;;;;;;;;4969155;28;20045;-77
2023/05/16 11:36:39;;;;;;;14.15;11.73;;;;;;;;;;4971455;28;20026;-77
2023/05/16 11:39:05;;;;;;;13.35;9.70;;;;;;;;;;4965124;28;20028;-76
2023/05/16 11:41:31;;;;;;;18.02;10.98;;;;;;;;;;4972018;28;20054;-76
2023/05/16 11:43:56;;;;;;;14.18;11.60;;;;;;;;;;4973392;28;20037;-77
2023/05/16 11:46:22;;;;;;;15.05;11.73;;;;;;;;;;4971860;28;20048;-77
2023/05/16 11:48:47;;;;;;;20.40;12.35;;;;;;;;;;4971801;28;20026;-77
2023/05/16 11:51:17;;;;;;;19.55;12.95;;;;;;;;;;4974411;28;20056;-75
2023/05/16 11:53:43;;;;;;;12.68;11.05;;;;;;;;;;4971835;28;20110;-75
2023/05/16 11:56:10;;;;;;;13.80;10.40;;;;;;;;;;4973506;28;20040;-76
2023/05/16 11:58:37;;;;;;;13.27;10.48;;;;;;;;;;4974265;28;20030;-77
2023/05/16 12:01:03;;;;;;;17.45;15.75;;;;;;;;;;4952816;28;20034;-77
2023/05/16 12:03:32;;;;;;;19.90;14.23;;;;;;;;;;4952042;28;20045;-76
2023/05/16 12:05:57;;;;;;;15.65;13.50;;;;;;;;;;4951403;28;20034;-76
2023/05/16 12:08:24;;;;;;;12.85;10.82;;;;;;;;;;4959163;28;20031;-77
2023/05/16 12:10:50;;;;;;;19.25;11.30;;;;;;;;;;4957170;28;20034;-76
2023/05/16 12:13:16;;;;;;;15.70;11.05;;;;;;;;;;4959203;28;20047;-76
2023/05/16 12:15:42;;;;;;;13.40;11.98;;;;;;;;;;4958380;28;20031;-77
2023/05/16 12:18:08;;;;;;;16.08;11.63;;;;;;;;;;4957570;28;20510;-76
2023/05/16 12:20:33;;;;;;;13.30;11.48;;;;;;;;;;4960616;28;20038;-76
2023/05/16 12:22:59;;;;;;;12.63;10.20;;;;;;;;;;4959257;28;20093;-77
2023/05/16 12:25:29;;;;;;;11.00;9.90;;;;;;;;;;4960776;28;20318;-77
2023/05/16 12:27:56;;;;;;;17.75;10.07;;;;;;;;;;4957150;28;20428;-78
2023/05/16 12:30:22;;;;;;;13.80;12.13;;;;;;;;;;4957768;28;20065;-76
2023/05/16 12:32:57;;;;;;;18.23;11.40;;;;;;;;;;4953021;28;20091;-75
2023/05/16 12:35:23;;;;;;;27.48;20.92;;;;;;;;;;4962396;28;20037;-78
2023/05/16 12:37:50;;;;;;;30.42;23.23;;;;;;;;;;4951919;28;20124;-76
2023/05/16 12:40:16;;;;;;;26.70;21.75;;;;;;;;;;4958774;28;20027;-77
2023/05/16 12:42:43;;;;;;;27.58;19.55;;;;;;;;;;4961238;28;20051;-76
2023/05/16 12:45:16;;;;;;;20.92;17.30;;;;;;;;;;4963100;28;20041;-77
2023/05/16 12:47:41;;;;;;;19.50;17.42;;;;;;;;;;4960932;28;20084;-76
2023/05/16 12:50:12;;;;;;;23.35;16.80;;;;;;;;;;4961578;28;20034;-76
2023/05/16 12:52:45;;;;;;;19.40;16.77;;;;;;;;;;4961383;28;20114;-76
2023/05/16 12:55:10;;;;;;;20.27;17.50;;;;;;;;;;4961204;28;20069;-76
2023/05/16 12:57:36;;;;;;;19.23;16.60;;;;;;;;;;4959807;28;20062;-76
2023/05/16 13:00:01;;;;;;;24.20;14.93;;;;;;;;;;4961443;28;20022;-77
2023/05/16 13:02:26;;;;;;;15.13;13.23;;;;;;;;;;4960312;28;20575;-78
2023/05/16 13:04:52;;;;;;;17.88;13.05;;;;;;;;;;4960994;28;20045;-78
2023/05/16 13:07:17;;;;;;;17.45;15.55;;;;;;;;;;4962301;28;20130;-75
2023/05/16 13:09:42;;;;;;;17.50;14.40;;;;;;;;;;4959748;28;20123;-76
2023/05/16 13:12:08;;;;;;;17.98;15.10;;;;;;;;;;4960338;28;20038;-75
2023/05/16 13:14:33;;;;;;;22.58;18.63;;;;;;;;;;4963025;28;20113;-76
2023/05/16 13:16:58;;;;;;;23.38;20.58;;;;;;;;;;4963087;28;20103;-77
2023/05/16 13:19:24;;;;;;;31.70;26.25;;;;;;;;;;4959040;28;20103;-77
2023/05/16 13:21:49;;;;;;;29.63;26.20;;;;;;;;;;4961536;28;20340;-76
2023/05/16 13:24:15;;;;;;;28.27;23.63;;;;;;;;;;4957689;28;20038;-76
2023/05/16 13:26:40;;;;;;;42.53;37.70;;;;;;;;;;4963228;28;20128;-76
2023/05/16 13:29:08;;;;;;;31.92;28.75;;;;;;;;;;4961992;28;20045;-76
2023/05/16 13:31:33;;;;;;;27.58;24.75;;;;;;;;;;4960870;28;20038;-77
2023/05/16 13:33:59;;;;;;;28.17;23.27;;;;;;;;;;4960030;28;20045;-79
2023/05/16 13:36:24;;;;;;;30.60;25.55;;;;;;;;;;4956975;28;20030;-76
2023/05/16 13:38:50;;;;;;;32.30;24.55;;;;;;;;;;4962154;28;20035;-79
2023/05/16 13:41:15;;;;;;;30.33;24.30;;;;;;;;;;4972654;28;20051;-77
2023/05/16 13:43:40;;;;;;;139.05;65.43;;;;;;;;;;4975741;28;20035;-75
2023/05/16 13:46:06;;;;;;;69.97;40.55;;;;;;;;;;4955357;28;20022;-76
2023/05/16 13:48:31;;;;;;;232.25;95.25;;;;;;;;;;4955559;28;20022;-76
2023/05/16 13:50:57;;;;;;;86.75;43.17;;;;;;;;;;4961808;28;20078;-78
2023/05/16 13:53:22;;;;;;;35.47;25.30;;;;;;;;;;4954189;28;20087;-78
2023/05/16 13:55:48;;;;;;;29.77;23.75;;;;;;;;;;4970167;28;20539;-79
2023/05/16 13:58:13;;;;;;;41.63;37.40;;;;;;;;;;4978381;28;20023;-76
2023/05/16 14:00:38;;;;;;;27.33;24.45;;;;;;;;;;4949538;28;20113;-81
2023/05/16 14:03:04;;;;;;;56.47;33.78;;;;;;;;;;4951955;28;20035;-78
2023/05/16 14:05:29;;;;;;;311.55;124.85;;;;;;;;;;4955466;28;20034;-78
2023/05/16 14:07:54;;;;;;;101.93;51.60;;;;;;;;;;4968638;28;20030;-77
2023/05/16 14:10:20;;;;;;;37.15;30.23;;;;;;;;;;4954883;28;20045;-80